sensor_id;sensor_type;location;lat;lon;timestamp;pressure;altitude;pressure_sealevel;temperature;humidity
19112;BME280;9688;51.906;8.376;2024-01-11T00:00:47;102321.22;;;-2.70;84.90
19112;BME280;9688;51.906;8.376;2024-01-11T00:03:32;102316.81;;;-2.73;85.27
19112;BME280;9688;51.906;8.376;2024-01-11T00:06:19;102324.53;;;-2.74;85.01
19112;BME280;9688;51.906;8.376;2024-01-11T00:09:04;102324.56;;;-2.73;84.81
19112;BME280;9688;51.906;8.376;2024-01-11T00:11:50;102332.41;;;-2.71;84.92
19112;BME280;9688;51.906;8.376;2024-01-11T00:14:35;102326.31;;;-2.72;85.20
19112;BME280;9688;51.906;8.376;2024-01-11T00:17:21;102318.56;;;-2.72;85.05
19112;BME280;9688;51.906;8.376;2024-01-11T00:20:07;102319.53;;;-2.70;84.92
19112;BME280;9688;51.906;8.376;2024-01-11T00:22:55;102314.34;;;-2.70;85.12
19112;BME280;9688;51.906;8.376;2024-01-11T00:25:40;102303.94;;;-2.71;85.17
19112;BME280;9688;51.906;8.376;2024-01-11T00:28:26;102311.72;;;-2.71;85.30
19112;BME280;9688;51.906;8.376;2024-01-11T00:31:11;102320.28;;;-2.72;84.68
19112;BME280;9688;51.906;8.376;2024-01-11T00:33:56;102308.91;;;-2.76;85.00
19112;BME280;9688;51.906;8.376;2024-01-11T00:36:42;102311.41;;;-2.77;85.16
19112;BME280;9688;51.906;8.376;2024-01-11T00:39:29;102314.00;;;-2.77;84.77
19112;BME280;9688;51.906;8.376;2024-01-11T00:42:14;102314.94;;;-2.77;84.62
19112;BME280;9688;51.906;8.376;2024-01-11T00:45:00;102312.34;;;-2.77;84.73
19112;BME280;9688;51.906;8.376;2024-01-11T00:47:45;102307.97;;;-2.78;85.33
19112;BME280;9688;51.906;8.376;2024-01-11T00:50:31;102299.25;;;-2.80;84.83
19112;BME280;9688;51.906;8.376;2024-01-11T00:53:16;102306.06;;;-2.82;85.14
19112;BME280;9688;51.906;8.376;2024-01-11T00:56:03;102294.72;;;-2.85;85.02
19112;BME280;9688;51.906;8.376;2024-01-11T00:58:49;102297.22;;;-2.87;85.62
19112;BME280;9688;51.906;8.376;2024-01-11T01:01:35;102293.63;;;-2.90;85.34
19112;BME280;9688;51.906;8.376;2024-01-11T01:04:20;102294.28;;;-2.95;85.70
19112;BME280;9688;51.906;8.376;2024-01-11T01:07:06;102292.44;;;-2.97;85.52
19112;BME280;9688;51.906;8.376;2024-01-11T01:09:51;102295.00;;;-2.99;86.06
19112;BME280;9688;51.906;8.376;2024-01-11T01:12:39;102289.59;;;-3.03;85.69
19112;BME280;9688;51.906;8.376;2024-01-11T01:15:24;102300.78;;;-3.04;85.86
19112;BME280;9688;51.906;8.376;2024-01-11T01:18:10;102303.28;;;-3.06;86.14
19112;BME280;9688;51.906;8.376;2024-01-11T01:20:55;102309.06;;;-3.11;85.95
19112;BME280;9688;51.906;8.376;2024-01-11T01:23:41;102308.59;;;-3.22;86.02
19112;BME280;9688;51.906;8.376;2024-01-11T01:26:27;102313.06;;;-3.38;86.68
19112;BME280;9688;51.906;8.376;2024-01-11T01:29:13;102324.25;;;-3.56;87.21
19112;BME280;9688;51.906;8.376;2024-01-11T01:31:59;102333.81;;;-3.73;87.94
19112;BME280;9688;51.906;8.376;2024-01-11T01:34:45;102342.59;;;-3.88;87.84
19112;BME280;9688;51.906;8.376;2024-01-11T01:37:30;102329.31;;;-3.95;88.53
19112;BME280;9688;51.906;8.376;2024-01-11T01:40:15;102333.75;;;-3.93;88.64
19112;BME280;9688;51.906;8.376;2024-01-11T01:43:01;102328.84;;;-3.87;88.42
19112;BME280;9688;51.906;8.376;2024-01-11T01:45:48;102332.56;;;-3.82;88.16
19112;BME280;9688;51.906;8.376;2024-01-11T01:48:34;102333.66;;;-3.76;88.03
19112;BME280;9688;51.906;8.376;2024-01-11T01:51:20;102331.00;;;-3.78;87.90
19112;BME280;9688;51.906;8.376;2024-01-11T01:54:06;102325.00;;;-3.77;88.08
19112;BME280;9688;51.906;8.376;2024-01-11T01:56:51;102321.69;;;-3.74;87.98
19112;BME280;9688;51.906;8.376;2024-01-11T01:59:38;102321.84;;;-3.71;88.00
19112;BME280;9688;51.906;8.376;2024-01-11T02:02:27;102324.63;;;-3.67;88.03
19112;BME280;9688;51.906;8.376;2024-01-11T02:05:13;102313.56;;;-3.64;88.01
19112;BME280;9688;51.906;8.376;2024-01-11T02:08:01;102322.19;;;-3.64;88.22
19112;BME280;9688;51.906;8.376;2024-01-11T02:10:49;102315.53;;;-3.59;88.07
19112;BME280;9688;51.906;8.376;2024-01-11T02:13:35;102306.03;;;-3.60;88.03
19112;BME280;9688;51.906;8.376;2024-01-11T02:16:20;102312.13;;;-3.58;88.04
19112;BME280;9688;51.906;8.376;2024-01-11T02:19:07;102312.13;;;-3.58;88.18
19112;BME280;9688;51.906;8.376;2024-01-11T02:21:59;102322.47;;;-3.58;88.28
19112;BME280;9688;51.906;8.376;2024-01-11T02:24:47;102320.78;;;-3.57;88.08
19112;BME280;9688;51.906;8.376;2024-01-11T02:27:44;102325.59;;;-3.65;88.31
19112;BME280;9688;51.906;8.376;2024-01-11T02:30:30;102336.31;;;-3.75;88.83
19112;BME280;9688;51.906;8.376;2024-01-11T02:33:15;102342.00;;;-3.82;89.19
19112;BME280;9688;51.906;8.376;2024-01-11T02:36:03;102320.28;;;-3.86;89.52
19112;BME280;9688;51.906;8.376;2024-01-11T02:38:50;102320.44;;;-3.83;89.23
19112;BME280;9688;51.906;8.376;2024-01-11T02:41:37;102318.91;;;-3.79;88.96
19112;BME280;9688;51.906;8.376;2024-01-11T02:44:23;102313.94;;;-3.74;88.97
19112;BME280;9688;51.906;8.376;2024-01-11T02:47:08;102307.16;;;-3.72;88.79
19112;BME280;9688;51.906;8.376;2024-01-11T02:49:54;102305.53;;;-3.70;89.06
19112;BME280;9688;51.906;8.376;2024-01-11T02:52:40;102315.13;;;-3.68;88.78
19112;BME280;9688;51.906;8.376;2024-01-11T02:55:25;102323.75;;;-3.67;89.21
19112;BME280;9688;51.906;8.376;2024-01-11T02:58:12;102316.97;;;-3.65;88.93
19112;BME280;9688;51.906;8.376;2024-01-11T03:00:57;102317.91;;;-3.63;89.04
19112;BME280;9688;51.906;8.376;2024-01-11T03:03:42;102320.56;;;-3.62;89.05
19112;BME280;9688;51.906;8.376;2024-01-11T03:06:28;102319.75;;;-3.61;89.27
19112;BME280;9688;51.906;8.376;2024-01-11T03:09:13;102312.81;;;-3.62;89.11
19112;BME280;9688;51.906;8.376;2024-01-11T03:11:59;102311.13;;;-3.61;89.20
19112;BME280;9688;51.906;8.376;2024-01-11T03:14:45;102315.41;;;-3.62;89.29
19112;BME280;9688;51.906;8.376;2024-01-11T03:17:31;102319.75;;;-3.61;89.27
19112;BME280;9688;51.906;8.376;2024-01-11T03:20:16;102327.50;;;-3.61;89.24
19112;BME280;9688;51.906;8.376;2024-01-11T03:23:04;102327.16;;;-3.68;89.53
19112;BME280;9688;51.906;8.376;2024-01-11T03:25:49;102325.00;;;-3.77;89.73
19112;BME280;9688;51.906;8.376;2024-01-11T03:28:35;102322.97;;;-3.84;89.73
19112;BME280;9688;51.906;8.376;2024-01-11T03:31:22;102326.41;;;-3.84;89.79
19112;BME280;9688;51.906;8.376;2024-01-11T03:34:07;102329.09;;;-3.82;89.84
19112;BME280;9688;51.906;8.376;2024-01-11T03:36:53;102327.44;;;-3.80;89.80
19112;BME280;9688;51.906;8.376;2024-01-11T03:39:38;102323.25;;;-3.78;89.53
19112;BME280;9688;51.906;8.376;2024-01-11T03:42:23;102310.41;;;-3.76;89.58
19112;BME280;9688;51.906;8.376;2024-01-11T03:45:09;102319.03;;;-3.76;89.51
19112;BME280;9688;51.906;8.376;2024-01-11T03:47:56;102331.13;;;-3.75;89.58
19112;BME280;9688;51.906;8.376;2024-01-11T03:50:41;102329.28;;;-3.77;89.55
19112;BME280;9688;51.906;8.376;2024-01-11T03:53:27;102333.56;;;-3.78;90.02
19112;BME280;9688;51.906;8.376;2024-01-11T03:56:12;102330.25;;;-3.75;89.99
19112;BME280;9688;51.906;8.376;2024-01-11T03:58:57;102327.06;;;-3.70;89.86
19112;BME280;9688;51.906;8.376;2024-01-11T04:01:43;102329.81;;;-3.67;89.66
19112;BME280;9688;51.906;8.376;2024-01-11T04:04:30;102333.41;;;-3.63;89.77
19112;BME280;9688;51.906;8.376;2024-01-11T04:07:16;102342.41;;;-3.55;89.55
19112;BME280;9688;51.906;8.376;2024-01-11T04:10:02;102342.63;;;-3.50;89.61
19112;BME280;9688;51.906;8.376;2024-01-11T04:12:48;102360.81;;;-3.49;89.27
19112;BME280;9688;51.906;8.376;2024-01-11T04:15:33;102353.56;;;-3.56;89.28
19112;BME280;9688;51.906;8.376;2024-01-11T04:18:18;102367.81;;;-3.64;89.83
19112;BME280;9688;51.906;8.376;2024-01-11T04:21:05;102377.13;;;-3.68;89.89
19112;BME280;9688;51.906;8.376;2024-01-11T04:23:51;102373.16;;;-3.79;89.95
19112;BME280;9688;51.906;8.376;2024-01-11T04:26:36;102380.75;;;-3.82;90.24
19112;BME280;9688;51.906;8.376;2024-01-11T04:29:21;102375.34;;;-3.87;90.36
19112;BME280;9688;51.906;8.376;2024-01-11T04:32:07;102375.22;;;-3.90;90.65
19112;BME280;9688;51.906;8.376;2024-01-11T04:34:52;102381.03;;;-3.94;90.46
19112;BME280;9688;51.906;8.376;2024-01-11T04:37:39;102380.88;;;-3.97;90.72
19112;BME280;9688;51.906;8.376;2024-01-11T04:40:24;102380.97;;;-3.95;90.82
19112;BME280;9688;51.906;8.376;2024-01-11T04:43:09;102365.66;;;-3.91;90.46
19112;BME280;9688;51.906;8.376;2024-01-11T04:45:55;102373.66;;;-3.86;90.44
19112;BME280;9688;51.906;8.376;2024-01-11T04:48:40;102368.13;;;-3.76;90.19
19112;BME280;9688;51.906;8.376;2024-01-11T04:51:26;102370.19;;;-3.69;90.43
19112;BME280;9688;51.906;8.376;2024-01-11T04:54:14;102378.38;;;-3.60;89.87
19112;BME280;9688;51.906;8.376;2024-01-11T04:56:59;102373.50;;;-3.53;89.76
19112;BME280;9688;51.906;8.376;2024-01-11T04:59:45;102373.00;;;-3.46;89.90
19112;BME280;9688;51.906;8.376;2024-01-11T05:02:30;102384.34;;;-3.43;89.87
19112;BME280;9688;51.906;8.376;2024-01-11T05:05:17;102378.50;;;-3.39;89.66
19112;BME280;9688;51.906;8.376;2024-01-11T05:08:03;102372.72;;;-3.33;89.57
19112;BME280;9688;51.906;8.376;2024-01-11T05:10:50;102380.56;;;-3.31;89.23
19112;BME280;9688;51.906;8.376;2024-01-11T05:13:36;102373.66;;;-3.32;89.29
19112;BME280;9688;51.906;8.376;2024-01-11T05:16:22;102365.94;;;-3.31;89.61
19112;BME280;9688;51.906;8.376;2024-01-11T05:19:09;102347.09;;;-3.28;89.17
19112;BME280;9688;51.906;8.376;2024-01-11T05:21:54;102339.44;;;-3.27;89.38
19112;BME280;9688;51.906;8.376;2024-01-11T05:24:40;102323.97;;;-3.25;89.21
19112;BME280;9688;51.906;8.376;2024-01-11T05:27:27;102323.00;;;-3.27;89.39
19112;BME280;9688;51.906;8.376;2024-01-11T05:30:13;102323.69;;;-3.31;89.34
19112;BME280;9688;51.906;8.376;2024-01-11T05:32:59;102330.22;;;-3.40;89.76
19112;BME280;9688;51.906;8.376;2024-01-11T05:35:45;102340.19;;;-3.47;90.22
19112;BME280;9688;51.906;8.376;2024-01-11T05:38:30;102351.13;;;-3.53;90.01
19112;BME280;9688;51.906;8.376;2024-01-11T05:41:16;102370.69;;;-3.58;90.44
19112;BME280;9688;51.906;8.376;2024-01-11T05:44:03;102381.03;;;-3.58;90.63
19112;BME280;9688;51.906;8.376;2024-01-11T05:46:48;102387.16;;;-3.56;90.30
19112;BME280;9688;51.906;8.376;2024-01-11T05:49:33;102384.66;;;-3.54;90.39
19112;BME280;9688;51.906;8.376;2024-01-11T05:52:19;102378.59;;;-3.55;90.62
19112;BME280;9688;51.906;8.376;2024-01-11T05:55:05;102383.63;;;-3.58;90.50
19112;BME280;9688;51.906;8.376;2024-01-11T05:57:50;102388.78;;;-3.58;90.58
19112;BME280;9688;51.906;8.376;2024-01-11T06:00:37;102387.06;;;-3.58;90.44
19112;BME280;9688;51.906;8.376;2024-01-11T06:03:23;102388.78;;;-3.58;90.56
19112;BME280;9688;51.906;8.376;2024-01-11T06:06:09;102386.19;;;-3.58;90.39
19112;BME280;9688;51.906;8.376;2024-01-11T06:08:55;102385.41;;;-3.57;90.41
19112;BME280;9688;51.906;8.376;2024-01-11T06:11:41;102383.63;;;-3.58;90.31
19112;BME280;9688;51.906;8.376;2024-01-11T06:14:26;102398.84;;;-3.64;90.39
19112;BME280;9688;51.906;8.376;2024-01-11T06:17:13;102401.63;;;-3.77;90.83
19112;BME280;9688;51.906;8.376;2024-01-11T06:19:59;102411.44;;;-3.88;91.29
19112;BME280;9688;51.906;8.376;2024-01-11T06:22:46;102421.25;;;-3.99;91.17
19112;BME280;9688;51.906;8.376;2024-01-11T06:25:34;102436.28;;;-4.08;91.74
19112;BME280;9688;51.906;8.376;2024-01-11T06:28:20;102440.00;;;-4.19;91.96
19112;BME280;9688;51.906;8.376;2024-01-11T06:31:05;102430.25;;;-4.25;92.21
19112;BME280;9688;51.906;8.376;2024-01-11T06:33:52;102433.34;;;-4.32;92.71
19112;BME280;9688;51.906;8.376;2024-01-11T06:36:38;102431.09;;;-4.42;92.83
19112;BME280;9688;51.906;8.376;2024-01-11T06:39:23;102422.22;;;-4.47;93.19
19112;BME280;9688;51.906;8.376;2024-01-11T06:42:08;102420.69;;;-4.44;92.73
19112;BME280;9688;51.906;8.376;2024-01-11T06:44:54;102417.63;;;-4.37;92.85
19112;BME280;9688;51.906;8.376;2024-01-11T06:47:39;102418.06;;;-4.28;92.48
19112;BME280;9688;51.906;8.376;2024-01-11T06:50:27;102417.59;;;-4.20;92.20
19112;BME280;9688;51.906;8.376;2024-01-11T06:53:13;102415.47;;;-4.11;92.17
19112;BME280;9688;51.906;8.376;2024-01-11T06:55:59;102404.69;;;-4.03;91.81
19112;BME280;9688;51.906;8.376;2024-01-11T06:58:44;102404.28;;;-3.94;91.98
19112;BME280;9688;51.906;8.376;2024-01-11T07:01:30;102397.72;;;-3.87;91.67
19112;BME280;9688;51.906;8.376;2024-01-11T07:04:16;102389.31;;;-3.83;91.41
19112;BME280;9688;51.906;8.376;2024-01-11T07:07:03;102381.78;;;-3.78;91.38
19112;BME280;9688;51.906;8.376;2024-01-11T07:09:49;102385.41;;;-3.75;91.61
19112;BME280;9688;51.906;8.376;2024-01-11T07:12:35;102382.16;;;-3.71;91.26
19112;BME280;9688;51.906;8.376;2024-01-11T07:15:22;102382.22;;;-3.69;91.51
19112;BME280;9688;51.906;8.376;2024-01-11T07:18:07;102387.97;;;-3.75;91.68
19112;BME280;9688;51.906;8.376;2024-01-11T07:20:56;102389.69;;;-3.75;91.88
19112;BME280;9688;51.906;8.376;2024-01-11T07:23:43;102393.22;;;-3.73;91.92
19112;BME280;9688;51.906;8.376;2024-01-11T07:26:29;102396.78;;;-3.71;92.12
19112;BME280;9688;51.906;8.376;2024-01-11T07:29:15;102406.16;;;-3.73;92.13
19112;BME280;9688;51.906;8.376;2024-01-11T07:32:01;102400.00;;;-3.75;92.13
19112;BME280;9688;51.906;8.376;2024-01-11T07:34:47;102405.34;;;-3.72;92.19
19112;BME280;9688;51.906;8.376;2024-01-11T07:37:33;102400.41;;;-3.68;91.88
19112;BME280;9688;51.906;8.376;2024-01-11T07:40:20;102405.75;;;-3.63;91.71
19112;BME280;9688;51.906;8.376;2024-01-11T07:43:05;102427.56;;;-3.58;91.63
19112;BME280;9688;51.906;8.376;2024-01-11T07:45:52;102416.28;;;-3.60;91.97
19112;BME280;9688;51.906;8.376;2024-01-11T07:48:38;102425.66;;;-3.62;92.01
19112;BME280;9688;51.906;8.376;2024-01-11T07:51:24;102417.81;;;-3.64;92.02
19112;BME280;9688;51.906;8.376;2024-01-11T07:54:10;102430.06;;;-3.60;92.04
19112;BME280;9688;51.906;8.376;2024-01-11T07:56:56;102425.78;;;-3.59;91.96
19112;BME280;9688;51.906;8.376;2024-01-11T07:59:42;102422.38;;;-3.58;92.10
19112;BME280;9688;51.906;8.376;2024-01-11T08:02:28;102431.09;;;-3.56;92.02
19112;BME280;9688;51.906;8.376;2024-01-11T08:05:13;102440.03;;;-3.49;91.86
19112;BME280;9688;51.906;8.376;2024-01-11T08:08:01;102428.91;;;-3.48;91.58
19112;BME280;9688;51.906;8.376;2024-01-11T08:10:49;102431.78;;;-3.42;91.96
19112;BME280;9688;51.906;8.376;2024-01-11T08:13:36;102436.34;;;-3.37;91.58
19112;BME280;9688;51.906;8.376;2024-01-11T08:16:22;102441.66;;;-3.33;91.25
19112;BME280;9688;51.906;8.376;2024-01-11T08:19:08;102444.47;;;-3.29;91.71
19112;BME280;9688;51.906;8.376;2024-01-11T08:21:54;102450.75;;;-3.24;91.44
19112;BME280;9688;51.906;8.376;2024-01-11T08:24:40;102439.31;;;-3.29;91.73
19112;BME280;9688;51.906;8.376;2024-01-11T08:27:26;102426.56;;;-3.24;91.66
19112;BME280;9688;51.906;8.376;2024-01-11T08:30:14;102426.75;;;-3.21;91.62
19112;BME280;9688;51.906;8.376;2024-01-11T08:33:01;102425.03;;;-3.21;91.99
19112;BME280;9688;51.906;8.376;2024-01-11T08:35:48;102431.81;;;-3.23;92.44
19112;BME280;9688;51.906;8.376;2024-01-11T08:38:33;102447.47;;;-3.20;92.77
19112;BME280;9688;51.906;8.376;2024-01-11T08:41:20;102446.97;;;-3.12;92.70
19112;BME280;9688;51.906;8.376;2024-01-11T08:44:06;102460.25;;;-3.05;92.65
19112;BME280;9688;51.906;8.376;2024-01-11T08:46:53;102470.06;;;-2.98;92.55
19112;BME280;9688;51.906;8.376;2024-01-11T08:49:38;102474.28;;;-3.00;92.02
19112;BME280;9688;51.906;8.376;2024-01-11T08:52:24;102474.59;;;-3.11;92.56
19112;BME280;9688;51.906;8.376;2024-01-11T08:55:10;102487.97;;;-3.20;92.88
19112;BME280;9688;51.906;8.376;2024-01-11T08:57:56;102488.44;;;-3.29;92.59
19112;BME280;9688;51.906;8.376;2024-01-11T09:00:45;102486.50;;;-3.33;92.71
19112;BME280;9688;51.906;8.376;2024-01-11T09:03:32;102496.25;;;-3.27;92.72
19112;BME280;9688;51.906;8.376;2024-01-11T09:06:17;102508.66;;;-3.20;92.35
19112;BME280;9688;51.906;8.376;2024-01-11T09:09:03;102517.16;;;-3.23;92.61
19112;BME280;9688;51.906;8.376;2024-01-11T09:11:54;102515.06;;;-3.30;92.50
19112;BME280;9688;51.906;8.376;2024-01-11T09:14:43;102514.28;;;-3.29;92.35
19112;BME280;9688;51.906;8.376;2024-01-11T09:17:28;102504.31;;;-3.21;92.74
19112;BME280;9688;51.906;8.376;2024-01-11T09:20:16;102496.03;;;-3.14;92.46
19112;BME280;9688;51.906;8.376;2024-01-11T09:23:03;102500.88;;;-3.02;92.29
19112;BME280;9688;51.906;8.376;2024-01-11T09:25:49;102493.88;;;-2.87;92.09
19112;BME280;9688;51.906;8.376;2024-01-11T09:28:35;102487.63;;;-2.73;92.09
19112;BME280;9688;51.906;8.376;2024-01-11T09:31:20;102488.34;;;-2.57;92.06
19112;BME280;9688;51.906;8.376;2024-01-11T09:34:06;102477.97;;;-2.38;91.53
19112;BME280;9688;51.906;8.376;2024-01-11T09:36:53;102470.19;;;-2.18;91.10
19112;BME280;9688;51.906;8.376;2024-01-11T09:39:43;102468.34;;;-2.02;91.00
19112;BME280;9688;51.906;8.376;2024-01-11T09:42:28;102464.53;;;-1.89;90.82
19112;BME280;9688;51.906;8.376;2024-01-11T09:45:15;102459.81;;;-1.78;90.19
19112;BME280;9688;51.906;8.376;2024-01-11T09:48:05;102462.06;;;-1.66;90.69
19112;BME280;9688;51.906;8.376;2024-01-11T09:50:52;102475.72;;;-1.49;90.65
19112;BME280;9688;51.906;8.376;2024-01-11T09:53:42;102472.91;;;-1.33;89.38
19112;BME280;9688;51.906;8.376;2024-01-11T09:56:29;102473.50;;;-1.18;89.13
19112;BME280;9688;51.906;8.376;2024-01-11T09:59:18;102467.91;;;-1.06;89.57
19112;BME280;9688;51.906;8.376;2024-01-11T10:02:07;102468.41;;;-0.94;88.65
19112;BME280;9688;51.906;8.376;2024-01-11T10:04:55;102473.09;;;-0.83;88.27
19112;BME280;9688;51.906;8.376;2024-01-11T10:07:41;102482.31;;;-0.69;87.73
19112;BME280;9688;51.906;8.376;2024-01-11T10:10:28;102479.22;;;-0.59;87.62
19112;BME280;9688;51.906;8.376;2024-01-11T10:13:16;102480.50;;;-0.48;87.48
19112;BME280;9688;51.906;8.376;2024-01-11T10:16:08;102486.88;;;-0.39;86.83
19112;BME280;9688;51.906;8.376;2024-01-11T10:18:55;102493.06;;;-0.36;86.46
19112;BME280;9688;51.906;8.376;2024-01-11T10:21:44;102484.56;;;-0.32;86.39
19112;BME280;9688;51.906;8.376;2024-01-11T10:24:31;102484.97;;;-0.19;86.40
19112;BME280;9688;51.906;8.376;2024-01-11T10:27:31;102485.44;;;-0.07;85.84
19112;BME280;9688;51.906;8.376;2024-01-11T10:30:17;102488.13;;;-0.04;85.63
19112;BME280;9688;51.906;8.376;2024-01-11T10:33:04;102481.00;;;-0.10;85.16
19112;BME280;9688;51.906;8.376;2024-01-11T10:35:51;102480.94;;;-0.11;85.27
19112;BME280;9688;51.906;8.376;2024-01-11T10:38:39;102477.63;;;-0.07;84.87
19112;BME280;9688;51.906;8.376;2024-01-11T10:41:25;102469.09;;;-0.03;84.67
19112;BME280;9688;51.906;8.376;2024-01-11T10:44:18;102464.94;;;0.02;84.26
19112;BME280;9688;51.906;8.376;2024-01-11T10:47:09;102474.63;;;0.06;84.18
19112;BME280;9688;51.906;8.376;2024-01-11T10:49:56;102473.22;;;0.16;84.03
19112;BME280;9688;51.906;8.376;2024-01-11T10:52:54;102469.13;;;0.22;83.92
19112;BME280;9688;51.906;8.376;2024-01-11T10:55:41;102479.00;;;0.33;83.74
19112;BME280;9688;51.906;8.376;2024-01-11T10:58:27;102463.38;;;0.33;83.17
19112;BME280;9688;51.906;8.376;2024-01-11T11:01:16;102464.34;;;0.35;82.61
19112;BME280;9688;51.906;8.376;2024-01-11T11:04:03;102466.25;;;0.40;82.58
19112;BME280;9688;51.906;8.376;2024-01-11T11:06:50;102463.53;;;0.37;82.81
19112;BME280;9688;51.906;8.376;2024-01-11T11:09:37;102462.81;;;0.41;82.72
19112;BME280;9688;51.906;8.376;2024-01-11T11:12:28;102469.47;;;0.59;82.45
19112;BME280;9688;51.906;8.376;2024-01-11T11:15:15;102464.91;;;0.80;82.26
19112;BME280;9688;51.906;8.376;2024-01-11T11:18:04;102460.34;;;1.00;81.50
19112;BME280;9688;51.906;8.376;2024-01-11T11:20:51;102448.78;;;1.19;81.68
19112;BME280;9688;51.906;8.376;2024-01-11T11:23:38;102448.59;;;1.43;81.05
19112;BME280;9688;51.906;8.376;2024-01-11T11:26:26;102452.03;;;1.72;80.82
19112;BME280;9688;51.906;8.376;2024-01-11T11:29:11;102462.41;;;2.03;80.17
19112;BME280;9688;51.906;8.376;2024-01-11T11:31:57;102452.13;;;2.09;80.32
19112;BME280;9688;51.906;8.376;2024-01-11T11:34:46;102455.44;;;2.03;81.20
19112;BME280;9688;51.906;8.376;2024-01-11T11:37:36;102457.25;;;2.06;82.14
19112;BME280;9688;51.906;8.376;2024-01-11T11:40:32;102457.19;;;2.03;82.99
19112;BME280;9688;51.906;8.376;2024-01-11T11:43:21;102452.91;;;2.06;83.64
19112;BME280;9688;51.906;8.376;2024-01-11T11:46:06;102448.88;;;2.17;83.69
19112;BME280;9688;51.906;8.376;2024-01-11T11:48:53;102444.38;;;2.12;84.46
19112;BME280;9688;51.906;8.376;2024-01-11T11:51:43;102447.69;;;2.06;85.16
19112;BME280;9688;51.906;8.376;2024-01-11T11:54:28;102445.31;;;2.15;85.44
19112;BME280;9688;51.906;8.376;2024-01-11T11:57:16;102444.56;;;2.19;85.34
19112;BME280;9688;51.906;8.376;2024-01-11T12:00:03;102446.41;;;2.23;86.31
19112;BME280;9688;51.906;8.376;2024-01-11T12:02:51;102442.25;;;2.30;86.57
19112;BME280;9688;51.906;8.376;2024-01-11T12:05:38;102449.50;;;2.43;86.88
19112;BME280;9688;51.906;8.376;2024-01-11T12:08:26;102446.81;;;2.39;87.23
19112;BME280;9688;51.906;8.376;2024-01-11T12:11:16;102437.03;;;2.30;88.86
19112;BME280;9688;51.906;8.376;2024-01-11T12:14:02;102438.91;;;2.37;89.46
19112;BME280;9688;51.906;8.376;2024-01-11T12:16:56;102433.91;;;2.46;89.54
19112;BME280;9688;51.906;8.376;2024-01-11T12:19:43;102433.28;;;2.55;90.11
19112;BME280;9688;51.906;8.376;2024-01-11T12:22:29;102430.03;;;2.65;89.73
19112;BME280;9688;51.906;8.376;2024-01-11T12:25:16;102437.03;;;2.66;90.84
19112;BME280;9688;51.906;8.376;2024-01-11T12:28:02;102437.09;;;2.71;91.44
19112;BME280;9688;51.906;8.376;2024-01-11T12:30:48;102441.66;;;2.80;91.58
19112;BME280;9688;51.906;8.376;2024-01-11T12:33:35;102439.09;;;2.81;92.20
19112;BME280;9688;51.906;8.376;2024-01-11T12:36:22;102441.72;;;2.81;92.42
19112;BME280;9688;51.906;8.376;2024-01-11T12:39:08;102437.41;;;2.83;93.40
19112;BME280;9688;51.906;8.376;2024-01-11T12:41:55;102428.59;;;2.80;94.08
19112;BME280;9688;51.906;8.376;2024-01-11T12:44:42;102429.53;;;2.82;95.04
19112;BME280;9688;51.906;8.376;2024-01-11T12:47:29;102409.56;;;2.84;95.44
19112;BME280;9688;51.906;8.376;2024-01-11T12:50:16;102418.25;;;2.83;96.33
19112;BME280;9688;51.906;8.376;2024-01-11T12:53:06;102408.63;;;2.82;96.62
19112;BME280;9688;51.906;8.376;2024-01-11T12:56:02;102405.03;;;2.75;96.96
19112;BME280;9688;51.906;8.376;2024-01-11T12:58:50;102398.88;;;2.73;97.39
19112;BME280;9688;51.906;8.376;2024-01-11T13:01:37;102391.91;;;2.72;97.78
19112;BME280;9688;51.906;8.376;2024-01-11T13:04:23;102398.81;;;2.70;97.27
19112;BME280;9688;51.906;8.376;2024-01-11T13:07:09;102383.19;;;2.73;98.10
19112;BME280;9688;51.906;8.376;2024-01-11T13:09:54;102382.47;;;2.79;97.80
19112;BME280;9688;51.906;8.376;2024-01-11T13:12:41;102382.28;;;2.71;97.50
19112;BME280;9688;51.906;8.376;2024-01-11T13:15:28;102373.63;;;2.72;97.71
19112;BME280;9688;51.906;8.376;2024-01-11T13:18:15;102377.16;;;2.76;97.82
19112;BME280;9688;51.906;8.376;2024-01-11T13:21:01;102373.75;;;2.78;97.61
19112;BME280;9688;51.906;8.376;2024-01-11T13:23:48;102377.22;;;2.79;97.67
19112;BME280;9688;51.906;8.376;2024-01-11T13:26:33;102377.22;;;2.79;97.39
19112;BME280;9688;51.906;8.376;2024-01-11T13:29:21;102385.94;;;2.78;97.80
19112;BME280;9688;51.906;8.376;2024-01-11T13:32:08;102372.00;;;2.79;97.30
19112;BME280;9688;51.906;8.376;2024-01-11T13:34:54;102375.56;;;2.82;97.46
19112;BME280;9688;51.906;8.376;2024-01-11T13:37:41;102371.38;;;2.89;97.77
19112;BME280;9688;51.906;8.376;2024-01-11T13:40:27;102371.56;;;2.98;97.81
19112;BME280;9688;51.906;8.376;2024-01-11T13:43:15;102377.81;;;3.06;98.10
19112;BME280;9688;51.906;8.376;2024-01-11T13:46:02;102377.00;;;3.09;97.93
19112;BME280;9688;51.906;8.376;2024-01-11T13:48:50;102373.53;;;3.10;98.33
19112;BME280;9688;51.906;8.376;2024-01-11T13:51:40;102381.53;;;3.16;98.38
19112;BME280;9688;51.906;8.376;2024-01-11T13:54:28;102389.44;;;3.21;97.87
19112;BME280;9688;51.906;8.376;2024-01-11T13:57:15;102379.97;;;3.26;98.71
19112;BME280;9688;51.906;8.376;2024-01-11T14:00:01;102387.69;;;3.20;97.97
19112;BME280;9688;51.906;8.376;2024-01-11T14:02:47;102386.75;;;3.18;98.65
19112;BME280;9688;51.906;8.376;2024-01-11T14:05:37;102380.63;;;3.16;98.40
19112;BME280;9688;51.906;8.376;2024-01-11T14:08:28;102386.69;;;3.15;99.37
19112;BME280;9688;51.906;8.376;2024-01-11T14:11:13;102382.28;;;3.12;99.37
19112;BME280;9688;51.906;8.376;2024-01-11T14:13:59;102377.81;;;3.06;99.41
19112;BME280;9688;51.906;8.376;2024-01-11T14:16:45;102384.75;;;3.04;99.10
19112;BME280;9688;51.906;8.376;2024-01-11T14:19:32;102384.69;;;3.01;99.58
19112;BME280;9688;51.906;8.376;2024-01-11T14:22:20;102380.19;;;2.94;99.59
19112;BME280;9688;51.906;8.376;2024-01-11T14:25:07;102383.63;;;2.92;99.86
19112;BME280;9688;51.906;8.376;2024-01-11T14:27:55;102383.63;;;2.92;100.00
19112;BME280;9688;51.906;8.376;2024-01-11T14:30:41;102388.78;;;2.88;100.00
19112;BME280;9688;51.906;8.376;2024-01-11T14:33:27;102387.03;;;2.89;100.00
19112;BME280;9688;51.906;8.376;2024-01-11T14:36:13;102377.34;;;2.85;100.00
19112;BME280;9688;51.906;8.376;2024-01-11T14:39:00;102393.84;;;2.82;100.00
19112;BME280;9688;51.906;8.376;2024-01-11T14:42:13;102406.94;;;2.84;100.00
19112;BME280;9688;51.906;8.376;2024-01-11T14:45:25;102399.00;;;2.79;100.00